Topton, NC (28781)

5:46 PM EST on February 01, 2015 (GMT -0500)
APRSWXNET Topton NC US | Change Station
CLOSE
Current Station
Personal Weather Station
Location: Topton, NC
Elevation: 2959 ft
Nearby Weather Stations
Active Advisory: Winter Weather Advisory

Elev 2959 ft 35.26 °N, 83.69 °W | Updated 28 minutes ago

Rain
Rain
47 °F
Feels Like 44 °F
N
6
Wind Variable Wind from North
Gusts 16.0 mph

Today
High -- | Low -- °F
--% Chance of Precip.
Yesterday
High -- | Low -- °F
Precip. -- in
7:34 AM 6:03 PM
Waxing Gibbous, 96% visible
Pressure 29.91 in
Visibility 7.0 miles
Clouds Scattered Clouds 1700 ft
Overcast 2300 ft
Windchill 44 °F
Dew Point 45 °F
Humidity 93%
Rainfall 0.12 in
Snow Depth Not available.
UV 0 out of 12
Pollen .60 out of 12
Air Quality Not available.
Flu Activity Not available.
METAR KRHP 012235Z AUTO 00000KT 7SM -RA SCT017 OVC023 08/08 A2991 RMK AO2 P0006 T00840077

More Conditions Fewer Conditions

Pressure 29.91 in
Visibility 7.0 miles
Clouds Scattered Clouds 1700 ft
Overcast 2300 ft
Windchill 44 °F
Dew Point 45 °F
Humidity 93%
Rainfall 0.12 in
Snow Depth Not available.
UV 0 out of 12
Pollen .60 out of 12
Air Quality Not available.
Flu Activity Not available.
METAR KRHP 012235Z AUTO 00000KT 7SM -RA SCT017 OVC023 08/08 A2991 RMK AO2 P0006 T00840077

More Conditions Fewer Conditions

10-Day Weather Forecast

Almanac

Astronomy

Feb. 01, 2015 Rise Set
Actual Time
Civil Twilight
Nautical Twilight
Astronomical Twilight
Moon
Length of Visible Light
Length of Day
Tomorrow will be .
, % of the Moon is Illuminated

Today's Extremes

State Highs State Lows

Community

WunderPhotos

Upload Photos

1,792,581 photos uploaded!

WunderBlogs® & News

Nearby

Air Quality

  Air Quality AQ Index Pollutant
Not available.

Snow Depth

Station Depth Elevation

Earthquake Activity

City Distance Mag. Time & Date
Minimum magnitude displayed is 2.5.

Coastal Water Temperatures

Place Temperature

Nearby Weather Stations